sensor_id;sensor_type;location;lat;lon;timestamp;P1;durP1;ratioP1;P2;durP2;ratioP2
19030;SDS011;9648;51.130;13.978;2023-03-23T00:00:51;2.10;;;1.30;;
19030;SDS011;9648;51.130;13.978;2023-03-23T00:03:19;2.92;;;1.30;;
19030;SDS011;9648;51.130;13.978;2023-03-23T00:05:46;2.80;;;1.30;;
19030;SDS011;9648;51.130;13.978;2023-03-23T00:08:16;2.97;;;1.30;;
19030;SDS011;9648;51.130;13.978;2023-03-23T00:10:47;4.00;;;1.20;;
19030;SDS011;9648;51.130;13.978;2023-03-23T00:13:17;3.13;;;1.30;;
19030;SDS011;9648;51.130;13.978;2023-03-23T00:15:45;3.67;;;1.23;;
19030;SDS011;9648;51.130;13.978;2023-03-23T00:18:13;3.20;;;1.40;;
19030;SDS011;9648;51.130;13.978;2023-03-23T00:20:47;3.53;;;1.33;;
19030;SDS011;9648;51.130;13.978;2023-03-23T00:23:14;3.08;;;1.30;;
19030;SDS011;9648;51.130;13.978;2023-03-23T00:25:45;2.50;;;1.20;;
19030;SDS011;9648;51.130;13.978;2023-03-23T00:28:12;1.30;;;1.05;;
19030;SDS011;9648;51.130;13.978;2023-03-23T00:30:39;2.80;;;1.10;;
19030;SDS011;9648;51.130;13.978;2023-03-23T00:33:07;4.18;;;1.08;;
19030;SDS011;9648;51.130;13.978;2023-03-23T00:35:37;2.77;;;1.40;;
19030;SDS011;9648;51.130;13.978;2023-03-23T00:38:04;3.30;;;1.50;;
19030;SDS011;9648;51.130;13.978;2023-03-23T00:40:35;3.10;;;1.50;;
19030;SDS011;9648;51.130;13.978;2023-03-23T00:43:02;2.85;;;1.38;;
19030;SDS011;9648;51.130;13.978;2023-03-23T00:45:29;1.85;;;1.30;;
19030;SDS011;9648;51.130;13.978;2023-03-23T00:47:59;6.70;;;1.58;;
19030;SDS011;9648;51.130;13.978;2023-03-23T00:50:27;1.98;;;1.20;;
19030;SDS011;9648;51.130;13.978;2023-03-23T00:52:54;4.13;;;1.30;;
19030;SDS011;9648;51.130;13.978;2023-03-23T00:55:22;2.35;;;1.20;;
19030;SDS011;9648;51.130;13.978;2023-03-23T00:57:50;4.63;;;1.40;;
19030;SDS011;9648;51.130;13.978;2023-03-23T01:00:17;2.80;;;1.20;;
19030;SDS011;9648;51.130;13.978;2023-03-23T01:02:45;2.10;;;1.13;;
19030;SDS011;9648;51.130;13.978;2023-03-23T01:05:12;2.20;;;1.05;;
19030;SDS011;9648;51.130;13.978;2023-03-23T01:07:39;1.40;;;0.85;;
19030;SDS011;9648;51.130;13.978;2023-03-23T01:10:06;3.83;;;1.10;;
19030;SDS011;9648;51.130;13.978;2023-03-23T01:12:34;1.77;;;1.10;;
19030;SDS011;9648;51.130;13.978;2023-03-23T01:15:05;2.00;;;0.98;;
19030;SDS011;9648;51.130;13.978;2023-03-23T01:17:32;1.92;;;1.00;;
19030;SDS011;9648;51.130;13.978;2023-03-23T01:19:59;1.50;;;0.90;;
19030;SDS011;9648;51.130;13.978;2023-03-23T01:22:26;1.50;;;1.02;;
19030;SDS011;9648;51.130;13.978;2023-03-23T01:24:53;1.30;;;0.90;;
19030;SDS011;9648;51.130;13.978;2023-03-23T01:27:19;3.85;;;1.20;;
19030;SDS011;9648;51.130;13.978;2023-03-23T01:29:46;2.67;;;1.05;;
19030;SDS011;9648;51.130;13.978;2023-03-23T01:32:14;1.45;;;0.90;;
19030;SDS011;9648;51.130;13.978;2023-03-23T01:34:41;2.00;;;0.90;;
19030;SDS011;9648;51.130;13.978;2023-03-23T01:37:07;1.55;;;0.90;;
19030;SDS011;9648;51.130;13.978;2023-03-23T01:39:35;2.37;;;0.93;;
19030;SDS011;9648;51.130;13.978;2023-03-23T01:42:02;1.88;;;1.00;;
19030;SDS011;9648;51.130;13.978;2023-03-23T01:47:51;2.40;;;1.00;;
19030;SDS011;9648;51.130;13.978;2023-03-23T01:50:21;1.55;;;0.80;;
19030;SDS011;9648;51.130;13.978;2023-03-23T01:52:51;1.73;;;0.80;;
19030;SDS011;9648;51.130;13.978;2023-03-23T01:55:21;2.00;;;0.80;;
19030;SDS011;9648;51.130;13.978;2023-03-23T01:57:50;2.60;;;0.80;;
19030;SDS011;9648;51.130;13.978;2023-03-23T02:00:17;1.65;;;0.77;;
19030;SDS011;9648;51.130;13.978;2023-03-23T02:02:45;1.80;;;0.80;;
19030;SDS011;9648;51.130;13.978;2023-03-23T02:05:17;2.65;;;1.10;;
19030;SDS011;9648;51.130;13.978;2023-03-23T02:07:48;3.60;;;1.00;;
19030;SDS011;9648;51.130;13.978;2023-03-23T02:10:15;1.42;;;0.70;;
19030;SDS011;9648;51.130;13.978;2023-03-23T02:12:42;7.28;;;1.15;;
19030;SDS011;9648;51.130;13.978;2023-03-23T02:15:09;3.90;;;1.10;;
19030;SDS011;9648;51.130;13.978;2023-03-23T02:17:38;1.35;;;0.90;;
19030;SDS011;9648;51.130;13.978;2023-03-23T02:20:15;1.60;;;0.90;;
19030;SDS011;9648;51.130;13.978;2023-03-23T02:23:00;3.20;;;0.88;;
19030;SDS011;9648;51.130;13.978;2023-03-23T02:25:55;2.38;;;0.82;;
19030;SDS011;9648;51.130;13.978;2023-03-23T02:31:43;1.42;;;0.80;;
19030;SDS011;9648;51.130;13.978;2023-03-23T02:34:20;1.83;;;0.93;;
19030;SDS011;9648;51.130;13.978;2023-03-23T02:36:54;3.25;;;0.98;;
19030;SDS011;9648;51.130;13.978;2023-03-23T02:39:25;1.55;;;0.77;;
19030;SDS011;9648;51.130;13.978;2023-03-23T02:41:56;1.00;;;0.80;;
19030;SDS011;9648;51.130;13.978;2023-03-23T02:44:27;1.05;;;0.85;;
19030;SDS011;9648;51.130;13.978;2023-03-23T02:46:55;1.30;;;0.73;;
19030;SDS011;9648;51.130;13.978;2023-03-23T02:49:25;1.60;;;0.80;;
19030;SDS011;9648;51.130;13.978;2023-03-23T02:51:54;1.70;;;1.08;;
19030;SDS011;9648;51.130;13.978;2023-03-23T02:54:24;1.83;;;0.88;;
19030;SDS011;9648;51.130;13.978;2023-03-23T02:56:52;1.30;;;0.80;;
19030;SDS011;9648;51.130;13.978;2023-03-23T02:59:20;1.63;;;0.70;;
19030;SDS011;9648;51.130;13.978;2023-03-23T03:04:39;2.10;;;0.80;;
19030;SDS011;9648;51.130;13.978;2023-03-23T03:07:15;2.53;;;1.30;;
19030;SDS011;9648;51.130;13.978;2023-03-23T03:09:54;2.55;;;1.35;;
19030;SDS011;9648;51.130;13.978;2023-03-23T03:12:26;2.60;;;1.10;;
19030;SDS011;9648;51.130;13.978;2023-03-23T03:15:04;1.80;;;0.90;;
19030;SDS011;9648;51.130;13.978;2023-03-23T03:17:40;2.00;;;0.90;;
19030;SDS011;9648;51.130;13.978;2023-03-23T03:20:12;3.25;;;0.85;;
19030;SDS011;9648;51.130;13.978;2023-03-23T03:22:40;2.22;;;0.90;;
19030;SDS011;9648;51.130;13.978;2023-03-23T03:25:10;3.30;;;1.10;;
19030;SDS011;9648;51.130;13.978;2023-03-23T03:27:40;1.65;;;0.95;;
19030;SDS011;9648;51.130;13.978;2023-03-23T03:30:11;2.15;;;0.90;;
19030;SDS011;9648;51.130;13.978;2023-03-23T03:32:41;2.17;;;0.90;;
19030;SDS011;9648;51.130;13.978;2023-03-23T03:35:15;3.10;;;0.90;;
19030;SDS011;9648;51.130;13.978;2023-03-23T03:37:42;1.60;;;0.82;;
19030;SDS011;9648;51.130;13.978;2023-03-23T03:40:13;1.50;;;0.93;;
19030;SDS011;9648;51.130;13.978;2023-03-23T03:42:42;1.48;;;0.90;;
19030;SDS011;9648;51.130;13.978;2023-03-23T03:45:11;4.63;;;1.13;;
19030;SDS011;9648;51.130;13.978;2023-03-23T03:47:39;2.67;;;1.10;;
19030;SDS011;9648;51.130;13.978;2023-03-23T03:50:06;2.45;;;1.20;;
19030;SDS011;9648;51.130;13.978;2023-03-23T03:52:35;2.28;;;1.17;;
19030;SDS011;9648;51.130;13.978;2023-03-23T03:55:06;3.27;;;1.10;;
19030;SDS011;9648;51.130;13.978;2023-03-23T03:57:34;2.27;;;1.20;;
19030;SDS011;9648;51.130;13.978;2023-03-23T04:00:01;3.35;;;1.30;;
19030;SDS011;9648;51.130;13.978;2023-03-23T04:02:38;2.00;;;1.30;;
19030;SDS011;9648;51.130;13.978;2023-03-23T04:05:05;2.40;;;1.20;;
19030;SDS011;9648;51.130;13.978;2023-03-23T04:07:35;2.78;;;1.27;;
19030;SDS011;9648;51.130;13.978;2023-03-23T04:10:05;1.50;;;1.08;;
19030;SDS011;9648;51.130;13.978;2023-03-23T04:12:33;2.22;;;1.20;;
19030;SDS011;9648;51.130;13.978;2023-03-23T04:15:00;2.37;;;1.60;;
19030;SDS011;9648;51.130;13.978;2023-03-23T04:17:27;2.30;;;1.30;;
19030;SDS011;9648;51.130;13.978;2023-03-23T04:19:54;2.72;;;1.40;;
19030;SDS011;9648;51.130;13.978;2023-03-23T04:22:22;3.00;;;1.10;;
19030;SDS011;9648;51.130;13.978;2023-03-23T04:24:57;1.60;;;1.20;;
19030;SDS011;9648;51.130;13.978;2023-03-23T04:27:25;2.13;;;1.30;;
19030;SDS011;9648;51.130;13.978;2023-03-23T04:29:55;2.88;;;1.20;;
19030;SDS011;9648;51.130;13.978;2023-03-23T04:32:26;3.93;;;1.40;;
19030;SDS011;9648;51.130;13.978;2023-03-23T04:34:54;1.98;;;1.30;;
19030;SDS011;9648;51.130;13.978;2023-03-23T04:37:24;1.67;;;1.20;;
19030;SDS011;9648;51.130;13.978;2023-03-23T04:39:54;2.90;;;1.60;;
19030;SDS011;9648;51.130;13.978;2023-03-23T04:42:26;2.28;;;1.50;;
19030;SDS011;9648;51.130;13.978;2023-03-23T04:44:54;2.22;;;1.35;;
19030;SDS011;9648;51.130;13.978;2023-03-23T04:47:22;3.40;;;1.65;;
19030;SDS011;9648;51.130;13.978;2023-03-23T04:49:49;3.40;;;1.75;;
19030;SDS011;9648;51.130;13.978;2023-03-23T04:52:15;3.40;;;1.65;;
19030;SDS011;9648;51.130;13.978;2023-03-23T04:54:42;2.55;;;1.50;;
19030;SDS011;9648;51.130;13.978;2023-03-23T04:57:09;3.60;;;1.67;;
19030;SDS011;9648;51.130;13.978;2023-03-23T04:59:38;3.53;;;1.70;;
19030;SDS011;9648;51.130;13.978;2023-03-23T05:02:06;3.67;;;1.70;;
19030;SDS011;9648;51.130;13.978;2023-03-23T05:04:32;2.38;;;1.65;;
19030;SDS011;9648;51.130;13.978;2023-03-23T05:06:59;3.50;;;1.60;;
19030;SDS011;9648;51.130;13.978;2023-03-23T05:09:26;2.17;;;1.42;;
19030;SDS011;9648;51.130;13.978;2023-03-23T05:11:52;5.35;;;1.80;;
19030;SDS011;9648;51.130;13.978;2023-03-23T05:14:19;3.43;;;1.73;;
19030;SDS011;9648;51.130;13.978;2023-03-23T05:16:47;2.75;;;1.45;;
19030;SDS011;9648;51.130;13.978;2023-03-23T05:19:14;4.55;;;1.67;;
19030;SDS011;9648;51.130;13.978;2023-03-23T05:21:41;3.53;;;1.70;;
19030;SDS011;9648;51.130;13.978;2023-03-23T05:24:09;3.20;;;1.52;;
19030;SDS011;9648;51.130;13.978;2023-03-23T05:26:36;3.25;;;1.77;;
19030;SDS011;9648;51.130;13.978;2023-03-23T05:29:02;3.40;;;1.50;;
19030;SDS011;9648;51.130;13.978;2023-03-23T05:31:29;4.75;;;1.75;;
19030;SDS011;9648;51.130;13.978;2023-03-23T05:33:58;4.63;;;2.00;;
19030;SDS011;9648;51.130;13.978;2023-03-23T05:36:25;3.55;;;1.80;;
19030;SDS011;9648;51.130;13.978;2023-03-23T05:38:51;4.45;;;1.80;;
19030;SDS011;9648;51.130;13.978;2023-03-23T05:41:18;5.77;;;1.60;;
19030;SDS011;9648;51.130;13.978;2023-03-23T05:43:46;4.47;;;1.60;;
19030;SDS011;9648;51.130;13.978;2023-03-23T05:46:12;4.00;;;1.70;;
19030;SDS011;9648;51.130;13.978;2023-03-23T05:48:39;2.85;;;1.70;;
19030;SDS011;9648;51.130;13.978;2023-03-23T05:51:07;4.35;;;1.63;;
19030;SDS011;9648;51.130;13.978;2023-03-23T05:53:34;3.30;;;1.70;;
19030;SDS011;9648;51.130;13.978;2023-03-23T05:56:01;2.72;;;1.60;;
19030;SDS011;9648;51.130;13.978;2023-03-23T05:58:28;4.13;;;1.70;;
19030;SDS011;9648;51.130;13.978;2023-03-23T06:00:55;4.70;;;1.70;;
19030;SDS011;9648;51.130;13.978;2023-03-23T06:03:25;2.53;;;1.48;;
19030;SDS011;9648;51.130;13.978;2023-03-23T06:05:51;2.45;;;1.40;;
19030;SDS011;9648;51.130;13.978;2023-03-23T06:08:19;3.80;;;1.60;;
19030;SDS011;9648;51.130;13.978;2023-03-23T06:10:47;1.67;;;1.30;;
19030;SDS011;9648;51.130;13.978;2023-03-23T06:13:14;3.35;;;1.58;;
19030;SDS011;9648;51.130;13.978;2023-03-23T06:15:41;3.47;;;1.50;;
19030;SDS011;9648;51.130;13.978;2023-03-23T06:18:08;2.40;;;1.40;;
19030;SDS011;9648;51.130;13.978;2023-03-23T06:20:35;2.97;;;1.67;;
19030;SDS011;9648;51.130;13.978;2023-03-23T06:23:02;2.20;;;1.50;;
19030;SDS011;9648;51.130;13.978;2023-03-23T06:25:31;3.42;;;1.50;;
19030;SDS011;9648;51.130;13.978;2023-03-23T06:27:58;2.88;;;1.60;;
19030;SDS011;9648;51.130;13.978;2023-03-23T06:30:28;3.17;;;1.60;;
19030;SDS011;9648;51.130;13.978;2023-03-23T06:32:55;2.47;;;1.40;;
19030;SDS011;9648;51.130;13.978;2023-03-23T06:35:22;4.88;;;1.60;;
19030;SDS011;9648;51.130;13.978;2023-03-23T06:37:49;3.83;;;1.50;;
19030;SDS011;9648;51.130;13.978;2023-03-23T06:40:16;3.40;;;1.63;;
19030;SDS011;9648;51.130;13.978;2023-03-23T06:42:45;3.13;;;1.70;;
19030;SDS011;9648;51.130;13.978;2023-03-23T06:45:12;3.50;;;1.70;;
19030;SDS011;9648;51.130;13.978;2023-03-23T06:47:39;2.53;;;1.48;;
19030;SDS011;9648;51.130;13.978;2023-03-23T06:50:06;4.57;;;1.80;;
19030;SDS011;9648;51.130;13.978;2023-03-23T06:52:33;3.10;;;1.42;;
19030;SDS011;9648;51.130;13.978;2023-03-23T06:55:01;3.00;;;1.47;;
19030;SDS011;9648;51.130;13.978;2023-03-23T06:57:27;2.47;;;1.20;;
19030;SDS011;9648;51.130;13.978;2023-03-23T06:59:55;3.27;;;1.30;;
19030;SDS011;9648;51.130;13.978;2023-03-23T07:02:22;4.38;;;1.30;;
19030;SDS011;9648;51.130;13.978;2023-03-23T07:04:49;3.08;;;1.13;;
19030;SDS011;9648;51.130;13.978;2023-03-23T07:07:17;2.00;;;1.10;;
19030;SDS011;9648;51.130;13.978;2023-03-23T07:09:43;2.75;;;1.50;;
19030;SDS011;9648;51.130;13.978;2023-03-23T07:12:10;2.92;;;1.30;;
19030;SDS011;9648;51.130;13.978;2023-03-23T07:14:37;4.40;;;1.37;;
19030;SDS011;9648;51.130;13.978;2023-03-23T07:17:08;2.00;;;1.00;;
19030;SDS011;9648;51.130;13.978;2023-03-23T07:19:35;2.90;;;1.13;;
19030;SDS011;9648;51.130;13.978;2023-03-23T07:22:03;2.25;;;1.05;;
19030;SDS011;9648;51.130;13.978;2023-03-23T07:24:30;2.17;;;1.03;;
19030;SDS011;9648;51.130;13.978;2023-03-23T07:26:58;4.68;;;1.38;;
19030;SDS011;9648;51.130;13.978;2023-03-23T07:29:24;2.88;;;1.00;;
19030;SDS011;9648;51.130;13.978;2023-03-23T07:31:51;1.63;;;1.15;;
19030;SDS011;9648;51.130;13.978;2023-03-23T07:34:20;3.30;;;1.30;;
19030;SDS011;9648;51.130;13.978;2023-03-23T07:36:47;2.00;;;1.10;;
19030;SDS011;9648;51.130;13.978;2023-03-23T07:39:14;3.67;;;1.20;;
19030;SDS011;9648;51.130;13.978;2023-03-23T07:41:41;3.28;;;1.58;;
19030;SDS011;9648;51.130;13.978;2023-03-23T07:44:08;5.80;;;1.17;;
19030;SDS011;9648;51.130;13.978;2023-03-23T07:46:34;5.50;;;1.13;;
19030;SDS011;9648;51.130;13.978;2023-03-23T07:49:01;1.48;;;1.00;;
19030;SDS011;9648;51.130;13.978;2023-03-23T07:51:32;1.63;;;0.90;;
19030;SDS011;9648;51.130;13.978;2023-03-23T07:53:59;1.70;;;1.20;;
19030;SDS011;9648;51.130;13.978;2023-03-23T07:56:28;2.30;;;1.30;;
19030;SDS011;9648;51.130;13.978;2023-03-23T07:58:55;2.85;;;1.38;;
19030;SDS011;9648;51.130;13.978;2023-03-23T08:01:21;3.70;;;1.67;;
19030;SDS011;9648;51.130;13.978;2023-03-23T08:03:48;3.13;;;1.40;;
19030;SDS011;9648;51.130;13.978;2023-03-23T08:06:16;3.00;;;1.10;;
19030;SDS011;9648;51.130;13.978;2023-03-23T08:08:44;2.73;;;1.20;;
19030;SDS011;9648;51.130;13.978;2023-03-23T08:11:11;4.35;;;1.50;;
19030;SDS011;9648;51.130;13.978;2023-03-23T08:13:40;1.83;;;1.02;;
19030;SDS011;9648;51.130;13.978;2023-03-23T08:16:07;3.80;;;1.73;;
19030;SDS011;9648;51.130;13.978;2023-03-23T08:18:34;4.80;;;1.90;;
19030;SDS011;9648;51.130;13.978;2023-03-23T08:21:02;5.00;;;2.08;;
19030;SDS011;9648;51.130;13.978;2023-03-23T08:23:30;5.38;;;2.60;;
19030;SDS011;9648;51.130;13.978;2023-03-23T08:25:59;5.27;;;2.10;;
19030;SDS011;9648;51.130;13.978;2023-03-23T08:28:25;4.68;;;1.75;;
19030;SDS011;9648;51.130;13.978;2023-03-23T08:30:52;3.70;;;1.50;;
19030;SDS011;9648;51.130;13.978;2023-03-23T08:33:19;5.35;;;1.50;;
19030;SDS011;9648;51.130;13.978;2023-03-23T08:35:53;3.10;;;1.30;;
19030;SDS011;9648;51.130;13.978;2023-03-23T08:38:21;3.35;;;1.30;;
19030;SDS011;9648;51.130;13.978;2023-03-23T08:40:48;4.38;;;1.38;;
19030;SDS011;9648;51.130;13.978;2023-03-23T08:43:16;2.78;;;1.30;;
19030;SDS011;9648;51.130;13.978;2023-03-23T08:45:43;2.55;;;1.50;;
19030;SDS011;9648;51.130;13.978;2023-03-23T08:48:13;2.92;;;1.58;;
19030;SDS011;9648;51.130;13.978;2023-03-23T08:50:40;2.50;;;1.30;;
19030;SDS011;9648;51.130;13.978;2023-03-23T08:53:07;3.28;;;1.35;;
19030;SDS011;9648;51.130;13.978;2023-03-23T08:55:33;1.75;;;1.10;;
19030;SDS011;9648;51.130;13.978;2023-03-23T08:58:00;2.80;;;1.00;;
19030;SDS011;9648;51.130;13.978;2023-03-23T09:00:29;4.28;;;1.10;;
19030;SDS011;9648;51.130;13.978;2023-03-23T09:02:57;4.40;;;1.42;;
19030;SDS011;9648;51.130;13.978;2023-03-23T09:05:25;2.08;;;1.08;;
19030;SDS011;9648;51.130;13.978;2023-03-23T09:07:54;2.20;;;1.30;;
19030;SDS011;9648;51.130;13.978;2023-03-23T09:10:24;3.42;;;1.10;;
19030;SDS011;9648;51.130;13.978;2023-03-23T09:12:51;3.58;;;1.30;;
19030;SDS011;9648;51.130;13.978;2023-03-23T09:15:19;1.90;;;1.20;;
19030;SDS011;9648;51.130;13.978;2023-03-23T09:17:49;3.50;;;1.27;;
19030;SDS011;9648;51.130;13.978;2023-03-23T09:20:20;3.22;;;1.30;;
19030;SDS011;9648;51.130;13.978;2023-03-23T09:22:48;3.15;;;1.25;;
19030;SDS011;9648;51.130;13.978;2023-03-23T09:25:17;2.40;;;1.00;;
19030;SDS011;9648;51.130;13.978;2023-03-23T09:27:47;2.70;;;1.10;;
19030;SDS011;9648;51.130;13.978;2023-03-23T09:30:18;3.58;;;1.20;;
19030;SDS011;9648;51.130;13.978;2023-03-23T09:32:45;3.72;;;1.30;;
19030;SDS011;9648;51.130;13.978;2023-03-23T09:35:15;4.10;;;1.35;;
19030;SDS011;9648;51.130;13.978;2023-03-23T09:37:42;2.40;;;1.33;;
19030;SDS011;9648;51.130;13.978;2023-03-23T09:40:11;3.22;;;2.70;;
19030;SDS011;9648;51.130;13.978;2023-03-23T09:42:53;4.68;;;2.33;;
19030;SDS011;9648;51.130;13.978;2023-03-23T09:45:31;2.65;;;1.50;;
19030;SDS011;9648;51.130;13.978;2023-03-23T09:48:08;4.20;;;1.70;;
19030;SDS011;9648;51.130;13.978;2023-03-23T09:50:55;6.13;;;1.70;;
19030;SDS011;9648;51.130;13.978;2023-03-23T09:53:28;3.08;;;1.50;;
19030;SDS011;9648;51.130;13.978;2023-03-23T09:56:00;2.83;;;1.70;;
19030;SDS011;9648;51.130;13.978;2023-03-23T09:58:29;2.60;;;1.77;;
19030;SDS011;9648;51.130;13.978;2023-03-23T10:01:03;2.17;;;1.73;;
19030;SDS011;9648;51.130;13.978;2023-03-23T10:03:34;3.28;;;1.60;;
19030;SDS011;9648;51.130;13.978;2023-03-23T10:06:07;4.70;;;1.80;;
19030;SDS011;9648;51.130;13.978;2023-03-23T10:08:35;4.38;;;1.80;;
19030;SDS011;9648;51.130;13.978;2023-03-23T10:11:10;3.07;;;1.60;;
19030;SDS011;9648;51.130;13.978;2023-03-23T10:13:49;3.80;;;1.50;;
19030;SDS011;9648;51.130;13.978;2023-03-23T10:16:34;4.07;;;1.60;;
19030;SDS011;9648;51.130;13.978;2023-03-23T10:19:07;2.60;;;1.37;;
19030;SDS011;9648;51.130;13.978;2023-03-23T10:21:39;4.50;;;1.50;;
19030;SDS011;9648;51.130;13.978;2023-03-23T10:24:10;3.72;;;1.92;;
19030;SDS011;9648;51.130;13.978;2023-03-23T10:26:44;2.22;;;1.70;;
19030;SDS011;9648;51.130;13.978;2023-03-23T10:29:16;2.10;;;1.50;;
19030;SDS011;9648;51.130;13.978;2023-03-23T10:31:46;2.38;;;1.40;;
19030;SDS011;9648;51.130;13.978;2023-03-23T10:34:18;2.47;;;1.53;;
19030;SDS011;9648;51.130;13.978;2023-03-23T10:36:56;4.25;;;1.60;;
19030;SDS011;9648;51.130;13.978;2023-03-23T10:39:28;2.45;;;1.63;;
19030;SDS011;9648;51.130;13.978;2023-03-23T10:41:59;3.65;;;1.52;;
19030;SDS011;9648;51.130;13.978;2023-03-23T10:44:32;2.35;;;1.20;;
19030;SDS011;9648;51.130;13.978;2023-03-23T10:47:00;2.17;;;1.30;;
19030;SDS011;9648;51.130;13.978;2023-03-23T10:49:30;3.30;;;1.80;;
19030;SDS011;9648;51.130;13.978;2023-03-23T10:52:06;2.65;;;1.67;;
19030;SDS011;9648;51.130;13.978;2023-03-23T10:54:46;3.70;;;1.60;;
19030;SDS011;9648;51.130;13.978;2023-03-23T10:57:20;1.98;;;1.13;;
19030;SDS011;9648;51.130;13.978;2023-03-23T10:59:49;2.78;;;1.20;;
19030;SDS011;9648;51.130;13.978;2023-03-23T11:02:17;2.45;;;1.27;;
19030;SDS011;9648;51.130;13.978;2023-03-23T11:04:46;2.40;;;1.20;;
19030;SDS011;9648;51.130;13.978;2023-03-23T11:07:24;2.20;;;1.25;;
19030;SDS011;9648;51.130;13.978;2023-03-23T11:09:54;2.65;;;1.30;;
19030;SDS011;9648;51.130;13.978;2023-03-23T11:12:23;2.15;;;1.15;;
19030;SDS011;9648;51.130;13.978;2023-03-23T11:14:51;1.80;;;1.20;;
19030;SDS011;9648;51.130;13.978;2023-03-23T11:17:33;1.30;;;1.20;;
19030;SDS011;9648;51.130;13.978;2023-03-23T11:20:08;2.63;;;0.90;;
19030;SDS011;9648;51.130;13.978;2023-03-23T11:22:38;2.40;;;1.17;;
19030;SDS011;9648;51.130;13.978;2023-03-23T11:25:05;1.47;;;1.00;;
19030;SDS011;9648;51.130;13.978;2023-03-23T11:27:35;1.73;;;1.02;;
19030;SDS011;9648;51.130;13.978;2023-03-23T11:30:07;2.10;;;0.90;;
19030;SDS011;9648;51.130;13.978;2023-03-23T11:32:36;1.60;;;1.10;;
19030;SDS011;9648;51.130;13.978;2023-03-23T11:35:04;1.85;;;1.20;;
19030;SDS011;9648;51.130;13.978;2023-03-23T11:37:42;3.05;;;1.50;;
19030;SDS011;9648;51.130;13.978;2023-03-23T11:40:14;1.85;;;1.35;;
19030;SDS011;9648;51.130;13.978;2023-03-23T11:42:44;2.05;;;1.00;;
19030;SDS011;9648;51.130;13.978;2023-03-23T11:45:17;2.08;;;0.95;;
19030;SDS011;9648;51.130;13.978;2023-03-23T11:47:48;2.53;;;1.17;;
19030;SDS011;9648;51.130;13.978;2023-03-23T11:50:22;1.77;;;1.13;;
19030;SDS011;9648;51.130;13.978;2023-03-23T11:52:54;2.30;;;1.00;;
19030;SDS011;9648;51.130;13.978;2023-03-23T11:55:29;2.53;;;0.93;;
19030;SDS011;9648;51.130;13.978;2023-03-23T11:58:05;2.00;;;1.10;;
19030;SDS011;9648;51.130;13.978;2023-03-23T12:00:39;2.00;;;1.00;;
19030;SDS011;9648;51.130;13.978;2023-03-23T12:03:30;1.92;;;1.02;;
19030;SDS011;9648;51.130;13.978;2023-03-23T12:06:11;2.40;;;1.03;;
19030;SDS011;9648;51.130;13.978;2023-03-23T12:08:47;1.95;;;1.05;;
19030;SDS011;9648;51.130;13.978;2023-03-23T12:11:23;1.42;;;1.00;;
19030;SDS011;9648;51.130;13.978;2023-03-23T12:13:56;2.35;;;1.10;;
19030;SDS011;9648;51.130;13.978;2023-03-23T12:16:34;2.15;;;1.10;;
19030;SDS011;9648;51.130;13.978;2023-03-23T12:19:14;2.03;;;1.10;;
19030;SDS011;9648;51.130;13.978;2023-03-23T12:21:49;2.10;;;1.10;;
19030;SDS011;9648;51.130;13.978;2023-03-23T12:24:25;1.60;;;1.10;;
19030;SDS011;9648;51.130;13.978;2023-03-23T12:27:02;1.42;;;1.10;;
19030;SDS011;9648;51.130;13.978;2023-03-23T12:29:39;1.73;;;1.15;;
19030;SDS011;9648;51.130;13.978;2023-03-23T12:32:24;2.05;;;1.10;;
19030;SDS011;9648;51.130;13.978;2023-03-23T12:35:06;2.20;;;1.10;;
19030;SDS011;9648;51.130;13.978;2023-03-23T12:37:49;2.05;;;1.02;;
19030;SDS011;9648;51.130;13.978;2023-03-23T12:40:33;2.03;;;1.00;;
19030;SDS011;9648;51.130;13.978;2023-03-23T12:43:09;6.28;;;2.83;;
19030;SDS011;9648;51.130;13.978;2023-03-23T12:45:45;7.43;;;3.53;;
19030;SDS011;9648;51.130;13.978;2023-03-23T12:48:32;5.05;;;2.10;;
19030;SDS011;9648;51.130;13.978;2023-03-23T12:51:08;2.87;;;1.27;;
19030;SDS011;9648;51.130;13.978;2023-03-23T12:53:42;1.90;;;1.10;;
19030;SDS011;9648;51.130;13.978;2023-03-23T12:56:20;1.60;;;0.80;;
19030;SDS011;9648;51.130;13.978;2023-03-23T12:58:53;3.50;;;1.10;;
19030;SDS011;9648;51.130;13.978;2023-03-23T13:01:26;3.03;;;1.30;;
19030;SDS011;9648;51.130;13.978;2023-03-23T13:03:57;2.53;;;1.23;;
19030;SDS011;9648;51.130;13.978;2023-03-23T13:06:27;3.53;;;1.23;;
19030;SDS011;9648;51.130;13.978;2023-03-23T13:08:58;3.72;;;1.65;;
19030;SDS011;9648;51.130;13.978;2023-03-23T13:11:32;3.42;;;1.70;;
19030;SDS011;9648;51.130;13.978;2023-03-23T13:14:03;5.55;;;2.70;;
19030;SDS011;9648;51.130;13.978;2023-03-23T13:16:40;2.40;;;1.05;;
19030;SDS011;9648;51.130;13.978;2023-03-23T13:19:22;2.50;;;1.00;;
19030;SDS011;9648;51.130;13.978;2023-03-23T13:21:54;2.20;;;1.50;;
19030;SDS011;9648;51.130;13.978;2023-03-23T13:24:28;2.50;;;1.90;;
19030;SDS011;9648;51.130;13.978;2023-03-23T13:26:59;3.38;;;1.20;;
19030;SDS011;9648;51.130;13.978;2023-03-23T13:29:26;2.40;;;1.00;;
19030;SDS011;9648;51.130;13.978;2023-03-23T13:32:03;1.90;;;0.90;;
19030;SDS011;9648;51.130;13.978;2023-03-23T13:34:32;2.33;;;1.02;;
19030;SDS011;9648;51.130;13.978;2023-03-23T13:36:59;1.80;;;0.93;;
19030;SDS011;9648;51.130;13.978;2023-03-23T13:39:29;3.05;;;1.13;;
19030;SDS011;9648;51.130;13.978;2023-03-23T13:42:02;1.13;;;0.98;;
19030;SDS011;9648;51.130;13.978;2023-03-23T13:44:56;2.03;;;1.00;;
19030;SDS011;9648;51.130;13.978;2023-03-23T13:47:36;4.20;;;1.33;;
19030;SDS011;9648;51.130;13.978;2023-03-23T13:50:09;2.97;;;0.98;;
19030;SDS011;9648;51.130;13.978;2023-03-23T13:52:39;2.90;;;1.55;;
19030;SDS011;9648;51.130;13.978;2023-03-23T13:55:27;2.53;;;1.33;;
19030;SDS011;9648;51.130;13.978;2023-03-23T13:58:09;2.83;;;1.25;;
19030;SDS011;9648;51.130;13.978;2023-03-23T14:00:44;2.88;;;1.10;;
19030;SDS011;9648;51.130;13.978;2023-03-23T14:03:13;2.35;;;1.30;;
19030;SDS011;9648;51.130;13.978;2023-03-23T14:05:44;2.28;;;1.20;;
19030;SDS011;9648;51.130;13.978;2023-03-23T14:08:20;3.15;;;1.13;;
19030;SDS011;9648;51.130;13.978;2023-03-23T14:10:50;1.70;;;1.10;;
19030;SDS011;9648;51.130;13.978;2023-03-23T14:13:23;2.85;;;1.35;;
19030;SDS011;9648;51.130;13.978;2023-03-23T14:15:56;2.67;;;1.23;;
19030;SDS011;9648;51.130;13.978;2023-03-23T14:18:26;2.53;;;1.30;;
19030;SDS011;9648;51.130;13.978;2023-03-23T14:20:56;1.97;;;1.30;;
19030;SDS011;9648;51.130;13.978;2023-03-23T14:23:23;2.22;;;1.30;;
19030;SDS011;9648;51.130;13.978;2023-03-23T14:25:54;2.85;;;1.50;;
19030;SDS011;9648;51.130;13.978;2023-03-23T14:28:26;2.27;;;1.30;;
19030;SDS011;9648;51.130;13.978;2023-03-23T14:30:53;3.00;;;1.20;;
19030;SDS011;9648;51.130;13.978;2023-03-23T14:33:22;2.00;;;1.35;;
19030;SDS011;9648;51.130;13.978;2023-03-23T14:35:50;2.07;;;1.00;;
19030;SDS011;9648;51.130;13.978;2023-03-23T14:38:17;4.40;;;1.40;;
19030;SDS011;9648;51.130;13.978;2023-03-23T14:40:48;2.83;;;1.00;;
19030;SDS011;9648;51.130;13.978;2023-03-23T14:43:16;2.97;;;1.10;;
19030;SDS011;9648;51.130;13.978;2023-03-23T14:45:47;2.30;;;0.98;;
19030;SDS011;9648;51.130;13.978;2023-03-23T14:48:20;1.42;;;0.80;;
19030;SDS011;9648;51.130;13.978;2023-03-23T14:50:51;3.83;;;1.02;;
19030;SDS011;9648;51.130;13.978;2023-03-23T14:53:22;2.17;;;1.00;;
19030;SDS011;9648;51.130;13.978;2023-03-23T14:55:50;2.00;;;0.90;;
19030;SDS011;9648;51.130;13.978;2023-03-23T14:58:19;2.53;;;1.03;;
19030;SDS011;9648;51.130;13.978;2023-03-23T15:00:51;2.30;;;1.25;;
19030;SDS011;9648;51.130;13.978;2023-03-23T15:03:21;2.30;;;1.48;;
19030;SDS011;9648;51.130;13.978;2023-03-23T15:05:50;2.45;;;1.08;;
19030;SDS011;9648;51.130;13.978;2023-03-23T15:08:20;1.80;;;1.13;;
19030;SDS011;9648;51.130;13.978;2023-03-23T15:13:41;1.33;;;0.85;;
19030;SDS011;9648;51.130;13.978;2023-03-23T15:16:13;1.80;;;1.10;;
19030;SDS011;9648;51.130;13.978;2023-03-23T15:18:46;2.67;;;1.10;;